Time;durP1;ratioP1;P1;durP2;ratioP2;P2;SDS_P1;SDS_P2;PMS_P1;PMS_P2;Temp;Humidity;BMP_temperature;BMP_pressure;BME280_temperature;BME280_humidity;BME280_pressure;Samples;Min_cycle;Max_cycle;Signal;HPM_P1;HPM_P2
2020/12/06 00:00:29;;;;;;;21.27;11.53;;;;;;;-2.72;65.51;102023.13;1664370;84;21691;-86
2020/12/06 00:02:56;;;;;;;21.97;12.87;;;;;;;-2.75;65.81;102029.30;1653510;85;21193;-87
2020/12/06 00:05:23;;;;;;;20.03;12.27;;;;;;;-2.74;65.85;102025.79;1663052;83;21304;-85
2020/12/06 00:07:50;;;;;;;21.60;12.43;;;;;;;-2.76;65.83;102038.89;1642408;86;21709;-85
2020/12/06 00:10:20;;;;;;;24.73;11.77;;;;;;;-2.79;65.11;102036.86;1640377;86;21226;-81
2020/12/06 00:12:47;;;;;;;22.77;12.50;;;;;;;-2.82;65.12;102039.61;1652735;85;21340;-82
2020/12/06 00:15:13;;;;;;;31.30;14.27;;;;;;;-2.84;65.38;102042.73;1649545;85;21527;-80
2020/12/06 00:17:40;;;;;;;27.77;11.20;;;;;;;-2.83;64.86;102049.17;1658628;85;21219;-85
2020/12/06 00:20:14;;;;;;;38.30;16.17;;;;;;;-2.89;64.24;102047.28;1646415;85;21239;-88
2020/12/06 00:22:41;;;;;;;38.40;14.03;;;;;;;-2.98;64.45;102036.73;1649959;85;21215;-83
2020/12/06 00:25:08;;;;;;;26.40;11.50;;;;;;;-3.07;65.14;102046.20;1653197;85;21155;-87
2020/12/06 00:27:36;;;;;;;26.00;13.93;;;;;;;-3.17;64.55;102044.41;1658794;85;21456;-81
2020/12/06 00:30:08;;;;;;;31.17;13.60;;;;;;;-3.11;65.22;102051.16;1651758;85;21393;-82
2020/12/06 00:32:37;;;;;;;25.63;12.40;;;;;;;-3.13;65.31;102044.68;1648566;85;21653;-83
2020/12/06 00:35:07;;;;;;;21.20;11.87;;;;;;;-3.10;65.10;102051.56;1647054;84;21238;-85
2020/12/06 00:37:36;;;;;;;23.07;12.03;;;;;;;-3.08;64.61;102037.54;1658928;85;21864;-84
2020/12/06 00:40:08;;;;;;;20.23;11.53;;;;;;;-3.04;64.26;102042.19;1657770;85;21231;-83
2020/12/06 00:42:38;;;;;;;18.73;11.07;;;;;;;-3.07;64.11;102045.78;1598808;87;21270;-82
2020/12/06 00:45:05;;;;;;;23.07;10.93;;;;;;;-3.19;63.73;102041.01;1602763;88;21402;-84
2020/12/06 00:47:37;;;;;;;20.33;11.00;;;;;;;-3.18;64.09;102042.72;1596175;86;21433;-87
2020/12/06 00:50:05;;;;;;;19.40;9.27;;;;;;;-3.20;64.34;102035.38;1604729;87;21202;-85
2020/12/06 00:52:33;;;;;;;24.40;10.57;;;;;;;-3.23;63.99;102045.95;1604054;88;21216;-84
2020/12/06 00:55:01;;;;;;;16.23;8.57;;;;;;;-3.35;63.91;102058.53;1588028;87;21184;-83
2020/12/06 00:57:30;;;;;;;23.73;9.67;;;;;;;-3.39;64.20;102053.47;1628860;87;21227;-88
2020/12/06 00:59:57;;;;;;;21.47;10.37;;;;;;;-3.41;63.89;102053.55;1647440;86;21218;-86
2020/12/06 01:02:25;;;;;;;18.40;10.73;;;;;;;-3.41;64.18;102045.73;1649670;86;21318;-83
2020/12/06 01:04:53;;;;;;;16.50;9.37;;;;;;;-3.37;64.34;102039.49;1646380;86;21345;-85
2020/12/06 01:07:20;;;;;;;17.57;9.87;;;;;;;-3.36;63.99;102041.17;1658662;85;21306;-86
2020/12/06 01:09:47;;;;;;;25.77;10.70;;;;;;;-3.33;63.33;102051.97;1655053;85;21804;-85
2020/12/06 01:12:14;;;;;;;22.30;11.27;;;;;;;-3.47;63.17;102045.93;1645604;84;21404;-85
2020/12/06 01:14:42;;;;;;;16.43;7.70;;;;;;;-3.48;63.34;102040.34;1653645;84;21849;-86
2020/12/06 01:17:10;;;;;;;16.60;8.97;;;;;;;-3.58;63.56;102046.77;1666854;85;21329;-84
2020/12/06 01:19:39;;;;;;;18.27;8.83;;;;;;;-3.62;63.60;102049.09;1654144;85;21208;-84
2020/12/06 01:22:06;;;;;;;20.70;9.07;;;;;;;-3.63;63.53;102056.08;1661531;85;21405;-85
2020/12/06 01:24:34;;;;;;;17.43;10.50;;;;;;;-3.70;63.80;102049.38;1649471;84;21397;-84
2020/12/06 01:27:01;;;;;;;22.00;9.77;;;;;;;-3.64;63.43;102054.82;1660094;84;21817;-83
2020/12/06 01:29:28;;;;;;;17.10;8.43;;;;;;;-3.74;63.35;102039.50;1656201;85;21341;-84
2020/12/06 01:31:54;;;;;;;;;;;;;;;-3.76;63.28;102046.53;1658530;85;21232;-85
2020/12/06 01:34:21;;;;;;;25.27;10.30;;;;;;;-3.73;63.48;102037.73;1648415;86;20189;-85
2020/12/06 01:36:51;;;;;;;18.37;8.17;;;;;;;-3.82;63.58;102040.70;1684372;84;21143;-87
2020/12/06 01:39:19;;;;;;;19.43;9.23;;;;;;;-3.84;63.29;102049.87;1690653;84;21206;-88
2020/12/06 01:41:46;;;;;;;26.10;10.80;;;;;;;-3.82;63.59;102043.31;1687476;83;21160;-88
2020/12/06 01:44:14;;;;;;;30.93;11.70;;;;;;;-3.86;63.57;102056.02;1691302;81;21282;-86
2020/12/06 01:46:41;;;;;;;28.37;11.27;;;;;;;-3.94;63.33;102046.73;1687764;83;21211;-86
2020/12/06 01:49:09;;;;;;;20.03;9.13;;;;;;;-3.89;63.39;102066.56;1648242;84;21748;-85
2020/12/06 01:51:36;;;;;;;36.33;11.17;;;;;;;-3.92;63.37;102059.69;1618671;86;21756;-87
2020/12/06 01:54:04;;;;;;;30.63;12.47;;;;;;;-4.00;63.37;102063.85;1684059;84;21223;-89
2020/12/06 01:56:31;;;;;;;63.80;18.80;;;;;;;-3.96;63.29;102057.63;1681136;83;21677;-86
2020/12/06 01:58:58;;;;;;;66.03;20.83;;;;;;;-4.01;63.27;102051.75;1687028;83;21844;-86
2020/12/06 02:01:25;;;;;;;32.53;11.03;;;;;;;-3.96;63.35;102037.25;1652947;85;21244;-81
2020/12/06 02:03:55;;;;;;;38.93;12.87;;;;;;;-4.00;63.17;102041.71;1632709;86;21214;-84
2020/12/06 02:06:23;;;;;;;44.20;13.10;;;;;;;-3.99;63.20;102046.49;1637707;84;21172;-81
2020/12/06 02:08:51;;;;;;;61.93;17.07;;;;;;;-4.03;63.18;102054.86;1669837;84;21322;-83
2020/12/06 02:11:33;;;;;;;47.37;12.93;;;;;;;-4.07;63.42;102045.88;1699788;83;21169;-82
2020/12/06 02:14:00;;;;;;;35.43;12.80;;;;;;;-4.15;63.33;102052.66;1700275;84;21320;-82
2020/12/06 02:16:27;;;;;;;50.50;12.70;;;;;;;-4.08;63.24;102047.64;1690793;82;21228;-84
2020/12/06 02:18:54;;;;;;;35.20;11.63;;;;;;;-4.19;63.40;102050.60;1684499;82;21212;-83
2020/12/06 02:21:23;;;;;;;52.80;15.73;;;;;;;-4.16;63.27;102054.42;1691457;82;21201;-83
2020/12/06 02:23:50;;;;;;;71.07;18.80;;;;;;;-4.16;63.14;102047.06;1700023;83;21181;-85
2020/12/06 02:26:16;;;;;;;;;;;;;;;-4.19;63.27;102051.91;1710270;83;21195;-83
2020/12/06 02:28:43;;;;;;;37.63;12.73;;;;;;;-4.19;63.13;102057.11;1698809;82;20168;-82
2020/12/06 02:31:11;;;;;;;41.13;11.23;;;;;;;-4.20;63.11;102061.94;1686417;83;21639;-84
2020/12/06 02:33:39;;;;;;;41.40;13.20;;;;;;;-4.25;63.06;102053.42;1684871;84;21806;-87
2020/12/06 02:36:06;;;;;;;47.03;15.10;;;;;;;-4.35;63.07;102054.60;1699453;83;21287;-84
2020/12/06 02:38:35;;;;;;;42.57;14.37;;;;;;;-4.29;63.17;102067.44;1674546;84;21607;-85
2020/12/06 02:41:02;;;;;;;47.80;13.53;;;;;;;-4.31;63.12;102069.25;1704028;84;21184;-84
2020/12/06 02:43:29;;;;;;;37.97;10.23;;;;;;;-4.29;63.18;102062.23;1693254;82;21646;-82
2020/12/06 02:45:57;;;;;;;35.20;10.57;;;;;;;-4.35;62.93;102071.09;1691281;82;21256;-83
2020/12/06 02:48:25;;;;;;;34.57;10.80;;;;;;;-4.31;62.96;102064.04;1687871;84;21252;-82
2020/12/06 02:50:52;;;;;;;41.43;12.10;;;;;;;-4.30;62.83;102073.54;1696232;84;21231;-80
2020/12/06 02:53:19;;;;;;;;;;;;;;;-4.41;62.75;102078.23;1707739;84;21142;-79
2020/12/06 02:55:47;;;;;;;62.67;14.60;;;;;;;-4.34;62.74;102064.97;1690496;84;20236;-81
2020/12/06 02:58:14;;;;;;;;;;;;;;;-4.48;62.98;102084.53;1708785;82;21153;-85
2020/12/06 03:00:41;;;;;;;42.90;11.60;;;;;;;-4.47;62.59;102099.27;1706232;81;20129;-84
2020/12/06 03:03:08;;;;;;;69.07;16.70;;;;;;;-4.55;62.93;102074.33;1697117;82;21318;-82
2020/12/06 03:05:36;;;;;;;42.83;13.47;;;;;;;-4.54;63.02;102094.27;1711958;82;21172;-82
2020/12/06 03:08:05;;;;;;;44.20;12.90;;;;;;;-4.51;62.87;102077.23;1701813;82;21205;-84
2020/12/06 03:10:36;;;;;;;67.60;17.97;;;;;;;-4.54;62.77;102076.05;1682877;84;21196;-81
2020/12/06 03:13:10;;;;;;;47.00;10.33;;;;;;;-4.54;62.80;102094.27;1694099;84;21134;-83
2020/12/06 03:15:37;;;;;;;28.27;10.67;;;;;;;-4.56;62.51;102109.08;1694684;83;21289;-83
2020/12/06 03:18:05;;;;;;;46.57;14.60;;;;;;;-4.59;62.80;102094.00;1658804;85;21196;-82
2020/12/06 03:20:34;;;;;;;39.70;11.53;;;;;;;-4.63;62.96;102093.67;1664399;85;21196;-82
2020/12/06 03:23:01;;;;;;;52.07;14.27;;;;;;;-4.59;63.03;102115.66;1673237;85;21203;-80
2020/12/06 03:25:29;;;;;;;51.97;14.63;;;;;;;-4.61;62.83;102099.25;1645448;87;21218;-82
2020/12/06 03:27:58;;;;;;;;;;;;;;;-4.57;62.72;102089.14;1645752;86;21213;-79
2020/12/06 03:30:31;;;;;;;33.03;9.13;;;;;;;-4.59;62.70;102105.25;1644111;86;20197;-81
2020/12/06 03:32:58;;;;;;;33.33;10.93;;;;;;;-4.72;62.62;102090.46;1702193;84;21335;-81
2020/12/06 03:35:26;;;;;;;40.70;11.77;;;;;;;-4.87;62.76;102080.98;1702672;81;21106;-79
2020/12/06 03:37:53;;;;;;;;;;;;;;;-4.69;62.60;102114.22;1711876;82;21212;-84
2020/12/06 03:40:22;;;;;;;43.02;12.20;;;;;;;-4.77;62.42;102096.70;1629435;82;123726;-84
2020/12/06 03:42:51;;;;;;;42.13;13.13;;;;;;;-4.79;62.92;102106.31;1658912;83;22537;-83
2020/12/06 03:45:18;;;;;;;46.47;12.57;;;;;;;-4.75;62.68;102114.42;1615537;87;22418;-83
2020/12/06 03:47:45;;;;;;;78.20;19.07;;;;;;;-4.79;62.49;102103.70;1619189;86;21346;-84
2020/12/06 03:50:12;;;;;;;56.90;14.80;;;;;;;-4.79;62.72;102095.44;1619091;86;21229;-81
2020/12/06 03:52:42;;;;;;;74.30;18.57;;;;;;;-4.75;62.37;102107.45;1620926;85;21201;-81
2020/12/06 03:55:09;;;;;;;;;;;;;;;-4.72;62.26;102106.53;1616227;87;21204;-82
2020/12/06 03:57:35;;;;;;;77.03;19.07;;;;;;;-4.74;62.01;102114.83;1617811;86;20188;-83
2020/12/06 04:00:04;;;;;;;69.43;18.40;;;;;;;-4.72;62.00;102111.73;1632423;86;21226;-81
2020/12/06 04:02:31;;;;;;;101.33;24.20;;;;;;;-4.73;61.93;102113.92;1613067;87;21173;-84
2020/12/06 04:04:58;;;;;;;92.27;24.40;;;;;;;-4.66;61.59;102108.09;1655819;84;21240;-84
2020/12/06 04:07:25;;;;;;;;;;;;;;;-4.70;61.91;102108.17;1681805;84;21180;-84
2020/12/06 04:09:53;;;;;;;87.87;21.07;;;;;;;-4.65;61.61;102109.36;1651604;84;20198;-83
2020/12/06 04:12:22;;;;;;;94.60;20.07;;;;;;;-4.69;61.54;102109.02;1656956;84;21169;-85
2020/12/06 04:14:49;;;;;;;95.60;23.07;;;;;;;-4.66;61.31;102118.50;1721398;82;21231;-82
2020/12/06 04:17:17;;;;;;;102.47;25.40;;;;;;;-4.64;61.23;102116.70;1701621;81;21239;-84
2020/12/06 04:19:47;;;;;;;99.27;26.53;;;;;;;-4.65;61.28;102122.36;1681493;83;21169;-84
2020/12/06 04:22:18;;;;;;;120.73;25.47;;;;;;;-4.59;60.97;102125.23;1684119;82;21228;-85
2020/12/06 04:24:50;;;;;;;81.50;20.50;;;;;;;-4.58;61.18;102121.71;1713524;81;21354;-82
2020/12/06 04:27:18;;;;;;;87.73;22.63;;;;;;;-4.57;60.81;102120.37;1678207;84;21172;-84
2020/12/06 04:29:47;;;;;;;93.50;21.70;;;;;;;-4.54;60.83;102120.29;1712343;81;21199;-82
2020/12/06 04:32:14;;;;;;;80.00;22.93;;;;;;;-4.59;60.63;102125.23;1717802;81;21197;-83
2020/12/06 04:34:45;;;;;;;128.57;30.30;;;;;;;-4.55;60.84;102130.73;1677914;84;21290;-85
2020/12/06 04:37:13;;;;;;;67.40;18.40;;;;;;;-4.53;60.56;102135.45;1687325;84;21115;-83
2020/12/06 04:39:41;;;;;;;90.17;23.00;;;;;;;-4.54;60.09;102129.39;1710813;82;21311;-84
2020/12/06 04:42:08;;;;;;;75.53;19.67;;;;;;;-4.52;60.17;102134.53;1701570;81;21189;-85
2020/12/06 04:44:35;;;;;;;121.57;29.23;;;;;;;-4.58;60.14;102125.16;1681534;84;21200;-83
2020/12/06 04:47:04;;;;;;;128.40;30.40;;;;;;;-4.56;60.33;102131.20;1676681;85;21294;-82
2020/12/06 04:49:45;;;;;;;127.57;28.93;;;;;;;-4.55;60.31;102132.04;1695639;82;21595;-80
2020/12/06 04:52:21;;;;;;;99.17;22.93;;;;;;;-4.56;60.09;102144.64;1684090;82;21687;-82
2020/12/06 04:55:01;;;;;;;84.10;21.27;;;;;;;-4.66;59.84;102132.81;1717012;81;21204;-82
2020/12/06 04:57:31;;;;;;;75.90;16.77;;;;;;;-4.63;59.77;102135.30;1704610;81;21288;-82
2020/12/06 05:00:10;;;;;;;35.47;13.80;;;;;;;-4.64;59.75;102144.87;1684351;84;21353;-82
2020/12/06 05:02:41;;;;;;;19.97;8.93;;;;;;;-4.70;59.91;102147.20;1698787;83;21181;-83
2020/12/06 05:05:09;;;;;;;16.47;6.77;;;;;;;-5.02;59.78;102099.19;1716760;81;21746;-82
2020/12/06 05:07:37;;;;;;;39.67;13.30;;;;;;;-4.81;59.99;102137.56;1689239;83;21761;-83
2020/12/06 05:10:04;;;;;;;29.30;11.17;;;;;;;-4.81;60.12;102143.22;1699797;82;21153;-82
2020/12/06 05:12:31;;;;;;;;;;;;;;;-4.83;60.12;102140.66;1702702;82;21200;-83
2020/12/06 05:14:58;;;;;;;31.20;9.27;;;;;;;-4.83;59.93;102145.02;1703079;82;20435;-83
2020/12/06 05:17:25;;;;;;;76.67;19.93;;;;;;;-4.89;60.36;102142.99;1717399;82;21194;-81
2020/12/06 05:19:53;;;;;;;58.10;17.27;;;;;;;-4.86;60.09;102143.34;1676136;83;21571;-82
2020/12/06 05:22:31;;;;;;;39.97;12.67;;;;;;;-4.90;60.22;102146.51;1672730;84;21212;-88
2020/12/06 05:24:59;;;;;;;33.33;11.43;;;;;;;-4.92;60.02;102150.03;1649781;85;21226;-80
2020/12/06 05:27:26;;;;;;;39.50;10.50;;;;;;;-4.90;60.04;102138.70;1705219;82;21818;-83
2020/12/06 05:29:53;;;;;;;45.97;13.83;;;;;;;-4.91;60.18;102149.99;1692180;81;21373;-81
2020/12/06 05:32:21;;;;;;;70.57;17.03;;;;;;;-4.90;59.89;102146.51;1684116;82;21248;-83
2020/12/06 05:34:49;;;;;;;38.00;10.50;;;;;;;-4.84;59.74;102147.20;1690645;81;21205;-84
2020/12/06 05:37:16;;;;;;;40.30;11.20;;;;;;;-4.86;59.55;102143.34;1664907;84;21140;-82
2020/12/06 05:39:44;;;;;;;41.47;11.33;;;;;;;-4.82;59.20;102149.31;1649356;82;21310;-82
2020/12/06 05:42:11;;;;;;;37.30;11.07;;;;;;;-4.86;59.05;102147.70;1689061;83;21658;-84
2020/12/06 05:44:38;;;;;;;35.40;12.47;;;;;;;-4.86;59.33;102164.61;1657815;85;21183;-84
2020/12/06 05:48:57;;;;;;;33.97;10.20;;;;;;;-4.84;59.19;102150.68;1801385;79;23412;-79
2020/12/06 05:51:25;;;;;;;22.87;8.27;;;;;;;-4.89;58.98;102160.36;1794400;80;21757;-81
2020/12/06 05:53:55;;;;;;;28.40;9.47;;;;;;;-4.92;58.90;102152.17;1796438;79;21195;-80
2020/12/06 05:56:24;;;;;;;28.07;10.07;;;;;;;-4.98;58.92;102154.95;1794890;79;21213;-85
2020/12/06 05:58:51;;;;;;;26.73;8.93;;;;;;;-4.94;58.98;102164.83;1796183;80;21180;-82
2020/12/06 06:01:21;;;;;;;46.53;12.03;;;;;;;-4.91;59.01;102166.05;1794562;79;21140;-80
2020/12/06 06:03:51;;;;;;;38.03;10.23;;;;;;;-4.94;58.72;102159.63;1791612;80;21774;-82
2020/12/06 06:06:25;;;;;;;49.87;11.67;;;;;;;-4.95;58.75;102167.89;1746674;80;21081;-81
2020/12/06 06:08:54;;;;;;;45.03;15.20;;;;;;;-4.94;58.62;102169.58;1707795;83;21175;-84
2020/12/06 06:11:38;;;;;;;99.03;20.67;;;;;;;-4.92;58.57;102167.78;1557671;91;21227;-81
2020/12/06 06:14:11;;;;;;;124.27;28.83;;;;;;;-4.87;58.52;102168.13;1556331;91;21405;-83
2020/12/06 06:16:38;;;;;;;103.53;24.60;;;;;;;-4.89;58.49;102174.21;1538718;92;21252;-83
2020/12/06 06:19:09;;;;;;;110.50;24.83;;;;;;;-4.80;58.31;102177.43;1528435;92;21382;-84
2020/12/06 06:21:40;;;;;;;96.00;21.67;;;;;;;-4.91;58.23;102172.56;1550037;91;21226;-83
2020/12/06 06:24:16;;;;;;;91.60;20.53;;;;;;;-4.80;58.18;102179.61;1528123;92;21309;-83
2020/12/06 06:26:47;;;;;;;96.50;22.20;;;;;;;-4.79;58.01;102185.20;1547394;91;21218;-85
2020/12/06 06:29:19;;;;;;;92.70;21.83;;;;;;;-4.77;57.67;102186.00;1529532;92;22396;-83
2020/12/06 06:31:49;;;;;;;68.97;16.53;;;;;;;-4.82;57.77;102181.41;1552922;91;21239;-84
2020/12/06 06:34:16;;;;;;;73.97;21.17;;;;;;;-4.83;57.86;102187.48;1552772;91;21234;-84
2020/12/06 06:36:44;;;;;;;78.17;19.97;;;;;;;-4.90;57.99;102179.02;1530627;88;21157;-83
2020/12/06 06:39:19;;;;;;;58.43;13.43;;;;;;;-4.79;58.02;102181.75;1500760;94;21252;-81
2020/12/06 06:42:07;;;;;;;53.20;14.07;;;;;;;-4.72;58.02;102185.89;1504316;94;21280;-84
2020/12/06 06:44:40;;;;;;;51.47;15.73;;;;;;;-4.65;57.45;102190.02;1506666;94;21232;-82
2020/12/06 06:47:13;;;;;;;56.10;14.23;;;;;;;-4.62;57.24;102189.91;1495204;95;21218;-82
2020/12/06 06:49:55;;;;;;;38.60;11.23;;;;;;;-4.67;56.89;102176.20;1500540;95;21795;-82
2020/12/06 06:52:27;;;;;;;52.70;13.60;;;;;;;-4.63;56.86;102199.06;1526405;93;21239;-82
2020/12/06 06:54:57;;;;;;;46.20;13.60;;;;;;;-4.77;57.04;102190.36;1520867;93;21957;-84
2020/12/06 06:57:30;;;;;;;47.33;11.10;;;;;;;-4.65;57.15;102182.64;1503307;94;21843;-81
2020/12/06 06:59:59;;;;;;;37.07;13.80;;;;;;;-4.73;56.74;102192.85;1504166;94;21990;-83
2020/12/06 07:02:45;;;;;;;48.10;12.50;;;;;;;-4.64;56.73;102183.06;1503236;94;21414;-85
2020/12/06 07:05:20;;;;;;;30.90;11.10;;;;;;;-4.62;56.92;102179.96;1502143;93;21290;-84
2020/12/06 07:07:51;;;;;;;30.97;12.03;;;;;;;-4.61;56.76;102177.32;1498005;94;21443;-83
2020/12/06 07:10:20;;;;;;;27.77;7.70;;;;;;;-4.54;56.66;102187.95;1493059;94;21837;-84
2020/12/06 07:12:51;;;;;;;29.17;9.30;;;;;;;-4.50;56.74;102174.41;1495740;94;21219;-85
2020/12/06 07:15:23;;;;;;;55.47;13.47;;;;;;;-4.40;56.15;102178.87;1497813;94;21278;-83
2020/12/06 07:17:52;;;;;;;39.20;12.17;;;;;;;-4.39;55.97;102173.63;1517307;91;21262;-87
2020/12/06 07:20:23;;;;;;;60.33;14.47;;;;;;;-4.35;55.95;102178.27;1503767;94;21871;-90
2020/12/06 07:22:52;;;;;;;71.90;17.47;;;;;;;-4.37;55.86;102192.66;1476453;96;21258;-86
2020/12/06 07:25:19;;;;;;;44.87;12.37;;;;;;;-4.27;56.16;102169.79;1522469;93;21702;-85
2020/12/06 07:27:48;;;;;;;30.23;11.10;;;;;;;-4.22;55.74;102195.25;1512850;93;21237;-87
2020/12/06 07:30:18;;;;;;;37.87;10.03;;;;;;;-4.11;55.71;102179.27;1519251;93;21367;-85
2020/12/06 07:32:45;;;;;;;54.57;13.37;;;;;;;-4.15;55.41;102192.83;1518364;93;21697;-84
2020/12/06 07:35:15;;;;;;;27.03;8.47;;;;;;;-4.15;55.31;102196.73;1493300;91;21267;-86
2020/12/06 07:37:42;;;;;;;83.30;16.50;;;;;;;-4.22;55.59;102192.64;1502528;94;21257;-87
2020/12/06 07:40:10;;;;;;;30.90;9.93;;;;;;;-4.22;55.81;102189.16;1502175;94;21271;-83
2020/12/06 07:42:37;;;;;;;31.53;9.27;;;;;;;-4.28;55.61;102206.28;1498481;94;21208;-83
2020/12/06 07:45:06;;;;;;;41.23;12.00;;;;;;;-4.22;55.66;102201.76;1495753;94;21425;-83
2020/12/06 07:47:33;;;;;;;28.63;9.20;;;;;;;-4.18;55.60;102199.45;1493766;94;21517;-82
2020/12/06 07:50:04;;;;;;;28.23;12.03;;;;;;;-4.65;55.42;102133.20;1476218;94;21347;-89
2020/12/06 07:52:36;;;;;;;71.00;17.93;;;;;;;-4.15;55.86;102191.98;1496848;94;21259;-83
2020/12/06 07:55:08;;;;;;;32.20;10.07;;;;;;;-4.04;55.98;102193.80;1495247;94;21301;-82
2020/12/06 07:57:44;;;;;;;19.00;8.60;;;;;;;-3.94;55.92;102196.53;1498924;94;21251;-82
2020/12/06 08:00:20;;;;;;;33.43;12.27;;;;;;;-3.87;55.19;102184.14;1500590;94;21381;-81
2020/12/06 08:03:00;;;;;;;27.00;9.13;;;;;;;-3.74;55.28;102181.53;1498298;94;21251;-83
2020/12/06 08:05:29;;;;;;;46.53;15.53;;;;;;;-3.66;54.80;102188.25;1493770;91;21237;-82
2020/12/06 08:08:09;;;;;;;40.33;11.30;;;;;;;-3.56;55.08;102185.72;1501803;94;21616;-82
2020/12/06 08:10:37;;;;;;;31.57;11.73;;;;;;;-3.56;54.18;102188.33;1520994;93;21248;-83
2020/12/06 08:13:10;;;;;;;43.80;14.03;;;;;;;-3.50;54.15;102193.36;1521701;93;21202;-84
2020/12/06 08:15:37;;;;;;;29.47;10.93;;;;;;;-3.48;53.60;102189.37;1514406;93;21246;-87
2020/12/06 08:18:14;;;;;;;;;;;;;;;-3.52;54.21;102192.56;1508101;93;21291;-82
2020/12/06 08:20:54;;;;;;;14.67;7.60;;;;;;;-3.43;53.58;102187.00;1492124;95;20243;-83
2020/12/06 08:26:11;;;;;;;14.77;8.27;;;;;;;-3.28;54.23;102180.88;1830305;77;22841;-83
2020/12/06 08:28:37;;;;;;;;;;;;;;;-3.17;53.83;102183.49;1815215;78;21185;-82
2020/12/06 08:31:21;;;;;;;11.40;5.72;;;;;;;-3.09;53.96;102184.98;1817692;77;20200;-83
2020/12/06 08:33:52;;;;;;;19.77;8.57;;;;;;;-3.29;53.41;102130.48;1809573;77;21176;-87
2020/12/06 08:36:25;;;;;;;11.90;7.37;;;;;;;-2.92;52.46;102186.98;1788756;78;21018;-86
2020/12/06 08:39:23;;;;;;;12.10;7.07;;;;;;;-2.96;52.15;102184.94;1769095;80;21136;-85
2020/12/06 08:41:54;;;;;;;22.93;11.10;;;;;;;-3.07;52.14;102191.88;1745053;80;21175;-84
2020/12/06 08:44:21;;;;;;;19.20;7.83;;;;;;;-3.10;52.43;102178.92;1751757;80;21629;-82
2020/12/06 08:46:50;;;;;;;40.80;12.50;;;;;;;-3.06;52.41;102182.28;1747132;81;21168;-84
2020/12/06 08:49:29;;;;;;;21.10;8.93;;;;;;;-3.11;52.21;102177.67;1751399;81;21172;-84
2020/12/06 08:51:58;;;;;;;;;;;;;;;-3.07;52.68;102167.09;1757841;80;21291;-79
2020/12/06 08:54:36;;;;;;;14.43;6.47;;;;;;;-3.06;52.66;102179.67;1697889;83;20184;-83
2020/12/06 08:57:07;;;;;;;16.20;7.33;;;;;;;-2.99;52.21;102182.00;1715336;83;21121;-82
2020/12/06 08:59:37;;;;;;;12.73;7.73;;;;;;;-2.89;52.22;102164.24;1714473;83;21652;-85
2020/12/06 09:02:06;;;;;;;16.07;7.17;;;;;;;-2.74;51.87;102163.67;1719986;82;21198;-82
2020/12/06 09:04:36;;;;;;;24.63;8.30;;;;;;;-2.65;51.84;102160.34;1702651;81;21336;-81
2020/12/06 09:07:06;;;;;;;16.63;8.10;;;;;;;-2.85;51.75;102127.14;1662134;83;21112;-83
2020/12/06 09:09:33;;;;;;;14.57;7.97;;;;;;;-2.50;51.66;102168.04;1678057;83;21740;-83
2020/12/06 09:12:01;;;;;;;16.93;7.73;;;;;;;-2.44;51.94;102167.80;1657626;85;21174;-80
2020/12/06 09:14:31;;;;;;;;;;;;;;;-2.29;51.74;102173.73;1691827;81;21172;-84
2020/12/06 09:20:29;;;;;;;25.53;8.40;;;;;;;-2.30;50.04;102168.09;1639312;85;21197;-83
2020/12/06 09:33:47;;;;;;;30.83;8.03;;;;;;;-2.22;50.13;102149.06;1806557;78;24268;-81
2020/12/06 09:36:19;;;;;;;33.00;10.90;;;;;;;-2.27;49.76;102152.30;1754132;79;21621;-87
2020/12/06 09:39:06;;;;;;;69.43;21.73;;;;;;;-2.25;49.99;102150.48;1819331;77;22930;-83
2020/12/06 09:41:38;;;;;;;;;;;;;;;-2.24;50.29;102156.55;1808770;79;21109;-83
2020/12/06 09:44:07;;;;;;;16.43;5.77;;;;;;;-2.20;50.17;102162.91;1807730;79;20192;-84
2020/12/06 09:46:35;;;;;;;17.37;6.80;;;;;;;-2.19;48.33;102171.59;1773965;79;21212;-84
2020/12/06 09:49:03;;;;;;;10.47;5.67;;;;;;;-2.53;48.58;102108.93;1785648;79;21326;-82
2020/12/06 09:51:32;;;;;;;;;;;;;;;-2.42;48.89;102165.97;1802828;79;22538;-82
2020/12/06 09:54:03;;;;;;;10.57;5.07;;;;;;;-2.36;49.11;102153.51;1782168;79;20210;-82
2020/12/06 09:57:03;;;;;;;12.70;6.63;;;;;;;-2.41;48.89;102136.31;1792295;78;23084;-85
2020/12/06 09:59:30;;;;;;;15.50;7.37;;;;;;;-2.37;48.88;102133.55;1751609;80;21261;-81
2020/12/06 10:02:01;;;;;;;17.37;7.37;;;;;;;-2.39;49.27;102158.03;1744381;81;21298;-86
2020/12/06 10:04:34;;;;;;;12.80;6.50;;;;;;;-2.26;48.77;102146.62;1702259;82;21223;-83
2020/12/06 10:07:01;;;;;;;15.93;6.50;;;;;;;-2.32;48.62;102136.42;1671625;82;21162;-82
2020/12/06 10:20:26;;;;;;;13.23;5.73;;;;;;;-1.80;48.29;102139.53;1787834;79;23163;-86
2020/12/06 10:22:53;;;;;;;8.47;5.63;;;;;;;-1.99;47.85;102106.31;1782638;78;21193;-83
2020/12/06 10:25:29;;;;;;;13.20;6.27;;;;;;;-1.92;47.55;102123.91;1832079;77;23041;-83
2020/12/06 10:27:56;;;;;;;10.37;5.77;;;;;;;-2.07;48.03;102124.09;1809222;77;21173;-85
2020/12/06 10:30:23;;;;;;;8.40;5.67;;;;;;;-2.05;47.99;102126.17;1817058;78;21592;-84
2020/12/06 10:32:50;;;;;;;15.27;6.57;;;;;;;-2.07;48.50;102125.83;1807188;78;21144;-81
2020/12/06 10:35:17;;;;;;;13.27;6.60;;;;;;;-2.00;48.09;102115.52;1793050;77;21161;-86
2020/12/06 10:37:46;;;;;;;9.87;4.90;;;;;;;-1.97;48.40;102120.63;1781153;78;21177;-82
2020/12/06 10:40:13;;;;;;;12.57;4.93;;;;;;;-1.85;48.00;102116.19;1774337;78;21878;-82
2020/12/06 10:42:39;;;;;;;8.37;5.60;;;;;;;-1.91;47.57;102125.59;1768023;80;21230;-82
2020/12/06 10:45:06;;;;;;;9.20;6.07;;;;;;;-1.90;47.47;102114.24;1762462;78;21197;-80
2020/12/06 10:47:33;;;;;;;10.07;6.37;;;;;;;-2.30;47.92;102049.70;1769261;79;21197;-83
2020/12/06 10:50:00;;;;;;;9.47;6.67;;;;;;;-1.93;47.91;102114.36;1772750;79;21156;-84
2020/12/06 10:52:27;;;;;;;11.67;5.30;;;;;;;-1.88;48.06;102110.27;1768548;79;21185;-83
2020/12/06 10:54:55;;;;;;;;;;;;;;;-1.91;47.15;102115.61;1783959;79;21292;-80
2020/12/06 10:57:24;;;;;;;9.23;4.63;;;;;;;-1.84;47.07;102113.14;1778688;79;20493;-83
2020/12/06 10:59:53;;;;;;;10.83;5.20;;;;;;;-1.90;46.79;102127.31;1763933;79;21944;-81
2020/12/06 11:02:21;;;;;;;29.40;10.13;;;;;;;-1.86;47.00;102105.35;1769109;79;21169;-82
2020/12/06 11:04:48;;;;;;;17.47;7.60;;;;;;;-1.77;47.28;102098.90;1791482;79;21735;-81
2020/12/06 11:07:16;;;;;;;12.57;5.20;;;;;;;-1.70;47.43;102098.16;1774876;79;21126;-83
2020/12/06 11:09:43;;;;;;;14.07;7.77;;;;;;;-1.61;47.17;102095.16;1781387;79;21181;-88
2020/12/06 11:12:11;;;;;;;13.67;8.17;;;;;;;-1.52;47.40;102092.61;1763514;80;22350;-86
2020/12/06 11:14:41;;;;;;;20.17;7.43;;;;;;;-1.46;47.70;102093.17;1770330;79;22190;-86
2020/12/06 11:17:31;;;;;;;;;;;;;;;;;;;;;
2020/12/06 11:20:19;;;;;;;12.03;8.57;;;;;;;-1.28;48.15;102082.80;1752391;79;28381;-85
2020/12/06 11:22:49;;;;;;;9.67;6.27;;;;;;;-1.02;47.80;102078.56;1722799;82;21338;-93
2020/12/06 11:25:18;;;;;;;10.83;6.67;;;;;;;-0.97;47.12;102090.13;1699784;81;21263;-89
2020/12/06 11:27:48;;;;;;;11.47;7.13;;;;;;;-1.00;47.41;102079.34;1687514;82;21321;-87
2020/12/06 11:30:16;;;;;;;12.80;6.60;;;;;;;-1.11;46.84;102078.11;1722837;81;21200;-92
2020/12/06 11:33:00;;;;;;;;;;;;;;;;;;;;;
2020/12/06 11:35:33;;;;;;;12.47;6.03;;;;;;;-1.18;45.84;102073.64;1703888;81;21199;-85
2020/12/06 11:38:16;;;;;;;;;;;;;;;;;;;;;
2020/12/06 11:41:07;;;;;;;8.63;5.10;;;;;;;-1.22;45.59;102069.00;1814821;77;24187;-90
2020/12/06 11:44:10;;;;;;;12.13;7.80;;;;;;;-1.31;45.71;102075.11;1811917;78;21251;-89
2020/12/06 11:46:51;;;;;;;11.87;5.87;;;;;;;-1.23;45.99;102073.83;1788665;79;21173;-92
2020/12/06 11:49:50;;;;;;;8.97;6.27;;;;;;;-1.15;45.36;102073.94;1799391;77;22509;-93
2020/12/06 11:52:22;;;;;;;9.80;5.47;;;;;;;-1.15;45.34;102073.47;1758140;79;21195;-90
2020/12/06 11:54:50;;;;;;;8.60;5.90;;;;;;;-1.15;44.72;102075.25;1757200;80;21291;-90
2020/12/06 11:57:17;;;;;;;7.30;4.23;;;;;;;-1.20;45.28;102071.55;1748187;80;21195;-92
2020/12/06 12:00:13;;;;;;;13.50;4.77;;;;;;;-1.25;45.70;102070.90;1739704;81;21191;-91
2020/12/06 12:02:44;;;;;;;11.60;6.10;;;;;;;-1.33;46.91;102066.48;1688835;80;21412;-90